Time;durP1;ratioP1;P1;durP2;ratioP2;P2;SDS_P1;SDS_P2;PMS_P1;PMS_P2;Temp;Humidity;BMP_temperature;BMP_pressure;BME280_temperature;BME280_humidity;BME280_pressure;Samples;Min_cycle;Max_cycle;Signal;HPM_P1;HPM_P2
2023/09/22 00:01:46;;;;;;;0.50;0.50;;;;;;;;;;5093698;28;20209;-34
2023/09/22 00:04:13;;;;;;;0.93;0.40;;;;;;;;;;5095832;28;20317;-32
2023/09/22 00:06:41;;;;;;;0.30;0.30;;;;;;;;;;5103829;28;20205;-31
2023/09/22 00:09:09;;;;;;;0.40;0.40;;;;;;;;;;5110341;28;20270;-33
2023/09/22 00:11:37;;;;;;;0.77;0.40;;;;;;;;;;5097720;28;20201;-33
2023/09/22 00:14:05;;;;;;;0.83;0.50;;;;;;;;;;5096226;28;20556;-32
2023/09/22 00:16:34;;;;;;;0.50;0.43;;;;;;;;;;5100292;28;20213;-35
2023/09/22 00:19:05;;;;;;;3.00;0.63;;;;;;;;;;5095903;28;20213;-34
2023/09/22 00:21:32;;;;;;;0.40;0.40;;;;;;;;;;5105138;28;20216;-34
2023/09/22 00:24:00;;;;;;;1.70;0.43;;;;;;;;;;5098469;28;20202;-34
2023/09/22 00:26:27;;;;;;;1.40;0.70;;;;;;;;;;5097374;28;20213;-33
2023/09/22 00:28:54;;;;;;;0.43;0.30;;;;;;;;;;5091959;28;20292;-35
2023/09/22 00:31:22;;;;;;;0.50;0.50;;;;;;;;;;5090010;28;20226;-33
2023/09/22 00:33:49;;;;;;;0.53;0.27;;;;;;;;;;5092130;28;20200;-33
2023/09/22 00:36:18;;;;;;;0.60;0.60;;;;;;;;;;5105014;28;20227;-33
2023/09/22 00:38:45;;;;;;;0.60;0.60;;;;;;;;;;5093600;28;20224;-31
2023/09/22 00:41:12;;;;;;;0.50;0.37;;;;;;;;;;5084640;28;20206;-31
2023/09/22 00:43:40;;;;;;;0.40;0.40;;;;;;;;;;5105783;28;20295;-36
2023/09/22 00:46:07;;;;;;;0.50;0.50;;;;;;;;;;5097947;28;20236;-35
2023/09/22 00:48:35;;;;;;;0.30;0.30;;;;;;;;;;5091155;28;20193;-36
2023/09/22 00:51:03;;;;;;;0.60;0.50;;;;;;;;;;5102319;28;20244;-33
2023/09/22 00:53:32;;;;;;;0.77;0.57;;;;;;;;;;5100354;28;20207;-36
2023/09/22 00:56:00;;;;;;;0.57;0.50;;;;;;;;;;5090133;28;20220;-36
2023/09/22 00:58:27;;;;;;;0.40;0.40;;;;;;;;;;5100510;28;20211;-35
2023/09/22 01:00:55;;;;;;;1.77;0.60;;;;;;;;;;5102967;28;20232;-31
2023/09/22 01:03:23;;;;;;;0.47;0.43;;;;;;;;;;5101537;28;20248;-38
2023/09/22 01:05:51;;;;;;;0.40;0.40;;;;;;;;;;5105405;28;20205;-34
2023/09/22 01:08:18;;;;;;;0.50;0.50;;;;;;;;;;5092276;28;20207;-35
2023/09/22 01:10:47;;;;;;;0.60;0.53;;;;;;;;;;5085474;28;21405;-34
2023/09/22 01:13:15;;;;;;;1.07;0.73;;;;;;;;;;5100078;28;20204;-36
2023/09/22 01:15:42;;;;;;;0.47;0.47;;;;;;;;;;5098252;28;20212;-33
2023/09/22 01:18:13;;;;;;;0.67;0.47;;;;;;;;;;5095959;28;20237;-35
2023/09/22 01:20:41;;;;;;;0.47;0.47;;;;;;;;;;5097322;28;20687;-32
2023/09/22 01:23:11;;;;;;;0.67;0.67;;;;;;;;;;5091116;28;20210;-35
2023/09/22 01:25:40;;;;;;;0.83;0.53;;;;;;;;;;5089479;28;20206;-34
2023/09/22 01:28:07;;;;;;;0.50;0.50;;;;;;;;;;5102347;28;20278;-31
2023/09/22 01:30:34;;;;;;;0.50;0.50;;;;;;;;;;5099209;28;20247;-35
2023/09/22 01:33:04;;;;;;;0.37;0.37;;;;;;;;;;5097054;28;20207;-34
2023/09/22 01:35:32;;;;;;;0.50;0.50;;;;;;;;;;5095751;28;20231;-34
2023/09/22 01:38:04;;;;;;;1.10;0.50;;;;;;;;;;5091890;28;20260;-33
2023/09/22 01:40:32;;;;;;;0.47;0.47;;;;;;;;;;5097975;28;20233;-34
2023/09/22 01:42:59;;;;;;;0.90;0.80;;;;;;;;;;5098493;28;20197;-35
2023/09/22 01:45:26;;;;;;;0.70;0.57;;;;;;;;;;5093084;28;20213;-32
2023/09/22 01:47:54;;;;;;;0.60;0.60;;;;;;;;;;5108342;28;20201;-33
2023/09/22 01:50:21;;;;;;;0.60;0.60;;;;;;;;;;5102600;28;20229;-35
2023/09/22 01:52:48;;;;;;;0.57;0.57;;;;;;;;;;5097315;28;20208;-31
2023/09/22 01:55:15;;;;;;;0.60;0.60;;;;;;;;;;5097504;28;20566;-35
2023/09/22 01:57:44;;;;;;;0.47;0.43;;;;;;;;;;5092756;28;20393;-33
2023/09/22 02:00:11;;;;;;;2.07;0.60;;;;;;;;;;5103190;28;20233;-36
2023/09/22 02:02:42;;;;;;;0.53;0.53;;;;;;;;;;5096703;28;20275;-35
2023/09/22 02:05:11;;;;;;;1.23;0.60;;;;;;;;;;5095233;28;20266;-33
2023/09/22 02:07:38;;;;;;;1.23;0.60;;;;;;;;;;5093651;28;20239;-31
2023/09/22 02:10:05;;;;;;;1.70;0.63;;;;;;;;;;5091742;28;20304;-35
2023/09/22 02:12:33;;;;;;;1.07;0.50;;;;;;;;;;5090677;28;20215;-35
2023/09/22 02:15:01;;;;;;;0.90;0.40;;;;;;;;;;5100974;28;20201;-31
2023/09/22 02:17:28;;;;;;;0.60;0.60;;;;;;;;;;5100170;28;20203;-32
2023/09/22 02:19:56;;;;;;;1.13;0.60;;;;;;;;;;5100117;28;20232;-36
2023/09/22 02:22:23;;;;;;;0.50;0.50;;;;;;;;;;5099863;28;20205;-35
2023/09/22 02:24:50;;;;;;;0.60;0.60;;;;;;;;;;5097574;28;20213;-37
2023/09/22 02:27:17;;;;;;;2.43;0.70;;;;;;;;;;5092960;28;20213;-34
2023/09/22 02:29:44;;;;;;;1.40;0.57;;;;;;;;;;5101100;28;20232;-33
2023/09/22 02:32:12;;;;;;;1.07;0.50;;;;;;;;;;5093738;28;20205;-33
2023/09/22 02:34:40;;;;;;;0.63;0.60;;;;;;;;;;5099192;28;20212;-34
2023/09/22 02:37:07;;;;;;;1.40;0.60;;;;;;;;;;5098555;27;20211;-35
2023/09/22 02:39:34;;;;;;;0.30;0.30;;;;;;;;;;5091104;28;20248;-31
2023/09/22 02:42:02;;;;;;;6.90;0.80;;;;;;;;;;5097448;28;20296;-38
2023/09/22 02:44:31;;;;;;;0.50;0.47;;;;;;;;;;5099824;28;20226;-35
2023/09/22 02:46:58;;;;;;;0.60;0.60;;;;;;;;;;5103681;28;20247;-35
2023/09/22 02:49:28;;;;;;;0.40;0.40;;;;;;;;;;5099842;28;20228;-34
2023/09/22 02:51:56;;;;;;;0.63;0.50;;;;;;;;;;5104068;28;20205;-35
2023/09/22 02:54:23;;;;;;;0.50;0.50;;;;;;;;;;5091452;28;20258;-37
2023/09/22 02:56:50;;;;;;;2.47;0.70;;;;;;;;;;5089906;28;20293;-32
2023/09/22 02:59:17;;;;;;;1.23;0.50;;;;;;;;;;5096108;28;20231;-36
2023/09/22 03:01:44;;;;;;;0.30;0.30;;;;;;;;;;5094453;28;20204;-34
2023/09/22 03:04:12;;;;;;;0.87;0.77;;;;;;;;;;5092374;28;20311;-36
2023/09/22 03:06:41;;;;;;;2.63;0.50;;;;;;;;;;5093336;28;20213;-36
2023/09/22 03:09:09;;;;;;;0.43;0.43;;;;;;;;;;5098434;28;20228;-35
2023/09/22 03:11:36;;;;;;;1.03;0.53;;;;;;;;;;5100418;28;20204;-36
2023/09/22 03:14:04;;;;;;;0.60;0.60;;;;;;;;;;5099522;28;20216;-36
2023/09/22 03:16:31;;;;;;;1.07;0.60;;;;;;;;;;5091073;28;20212;-34
2023/09/22 03:18:58;;;;;;;0.70;0.50;;;;;;;;;;5099148;28;20208;-35
2023/09/22 03:21:25;;;;;;;0.50;0.50;;;;;;;;;;5109036;28;20204;-34
2023/09/22 03:23:53;;;;;;;0.83;0.70;;;;;;;;;;5094111;28;20216;-31
2023/09/22 03:26:21;;;;;;;0.60;0.60;;;;;;;;;;5100503;28;20210;-31
2023/09/22 03:28:49;;;;;;;0.60;0.60;;;;;;;;;;5094838;28;20201;-35
2023/09/22 03:31:16;;;;;;;0.50;0.50;;;;;;;;;;5101724;28;20239;-32
2023/09/22 03:33:46;;;;;;;0.43;0.43;;;;;;;;;;5108230;28;20204;-35
2023/09/22 03:36:13;;;;;;;1.10;0.60;;;;;;;;;;5101038;28;20209;-38
2023/09/22 03:38:40;;;;;;;0.50;0.50;;;;;;;;;;5098437;28;20204;-34
2023/09/22 03:41:09;;;;;;;3.03;0.60;;;;;;;;;;5096140;27;20286;-34
2023/09/22 03:43:36;;;;;;;0.90;0.50;;;;;;;;;;5103970;28;20215;-33
2023/09/22 03:46:03;;;;;;;0.50;0.50;;;;;;;;;;5098517;28;20204;-35
2023/09/22 03:48:31;;;;;;;0.53;0.40;;;;;;;;;;5106550;28;20200;-35
2023/09/22 03:50:58;;;;;;;0.67;0.67;;;;;;;;;;5092309;28;20913;-34
2023/09/22 03:53:27;;;;;;;2.43;0.80;;;;;;;;;;5092647;28;20204;-31
2023/09/22 03:55:54;;;;;;;0.60;0.60;;;;;;;;;;5094016;28;20423;-35
2023/09/22 03:58:22;;;;;;;1.80;0.53;;;;;;;;;;5104006;28;20229;-32
2023/09/22 04:00:52;;;;;;;1.07;0.60;;;;;;;;;;5095976;28;20708;-36
2023/09/22 04:03:19;;;;;;;1.27;0.70;;;;;;;;;;5105047;28;20200;-33
2023/09/22 04:05:46;;;;;;;1.60;0.50;;;;;;;;;;5107125;28;20233;-32
2023/09/22 04:08:13;;;;;;;2.77;0.77;;;;;;;;;;5098921;28;20201;-34
2023/09/22 04:10:41;;;;;;;2.77;0.60;;;;;;;;;;5083825;28;20224;-35
2023/09/22 04:13:08;;;;;;;0.73;0.50;;;;;;;;;;5091015;28;20229;-34
2023/09/22 04:15:37;;;;;;;0.90;0.40;;;;;;;;;;5099317;28;20215;-34
2023/09/22 04:18:04;;;;;;;0.53;0.30;;;;;;;;;;5097517;28;20203;-32
2023/09/22 04:20:35;;;;;;;0.50;0.50;;;;;;;;;;5094184;28;20291;-31
2023/09/22 04:23:04;;;;;;;0.90;0.50;;;;;;;;;;5102115;28;20243;-33
2023/09/22 04:25:34;;;;;;;0.40;0.40;;;;;;;;;;5101731;28;20246;-35
2023/09/22 04:28:08;;;;;;;0.93;0.60;;;;;;;;;;5105536;28;20315;-32
2023/09/22 04:30:37;;;;;;;1.87;0.60;;;;;;;;;;5098438;28;20233;-35
2023/09/22 04:33:05;;;;;;;0.73;0.73;;;;;;;;;;5093603;28;20200;-33
2023/09/22 04:35:32;;;;;;;3.07;0.53;;;;;;;;;;5093809;28;20207;-33
2023/09/22 04:38:00;;;;;;;0.47;0.47;;;;;;;;;;5098961;28;20211;-32
2023/09/22 04:40:30;;;;;;;2.50;0.80;;;;;;;;;;5085115;28;20619;-35
2023/09/22 04:42:57;;;;;;;0.40;0.40;;;;;;;;;;5106352;28;20267;-33
2023/09/22 04:45:24;;;;;;;0.63;0.60;;;;;;;;;;5095477;28;20198;-35
2023/09/22 04:47:53;;;;;;;2.00;0.70;;;;;;;;;;5106272;28;20204;-34
2023/09/22 04:50:21;;;;;;;3.10;0.70;;;;;;;;;;5093191;28;20228;-36
2023/09/22 04:52:49;;;;;;;2.27;0.80;;;;;;;;;;5108229;28;20298;-34
2023/09/22 04:55:16;;;;;;;0.87;0.50;;;;;;;;;;5089885;28;20210;-34
2023/09/22 04:57:44;;;;;;;0.80;0.60;;;;;;;;;;5097509;28;20207;-33
2023/09/22 05:00:16;;;;;;;1.60;0.63;;;;;;;;;;5101564;28;20279;-33
2023/09/22 05:02:44;;;;;;;0.63;0.60;;;;;;;;;;5109179;28;20261;-35
2023/09/22 05:05:16;;;;;;;2.20;0.93;;;;;;;;;;5101204;28;20199;-35
2023/09/22 05:07:43;;;;;;;0.60;0.60;;;;;;;;;;5109067;28;20253;-34
2023/09/22 05:10:11;;;;;;;0.70;0.70;;;;;;;;;;5100462;28;20231;-32
2023/09/22 05:12:38;;;;;;;1.60;0.70;;;;;;;;;;5092983;28;20209;-31
2023/09/22 05:15:06;;;;;;;2.00;0.67;;;;;;;;;;5097674;28;20219;-34
2023/09/22 05:17:34;;;;;;;1.20;0.60;;;;;;;;;;5089948;28;20305;-33
2023/09/22 05:20:03;;;;;;;1.20;0.70;;;;;;;;;;5089248;28;20223;-34
2023/09/22 05:22:32;;;;;;;2.43;0.70;;;;;;;;;;5090442;28;20233;-36
2023/09/22 05:24:59;;;;;;;1.07;0.60;;;;;;;;;;5088175;28;20200;-33
2023/09/22 05:27:28;;;;;;;0.93;0.67;;;;;;;;;;5095264;28;20205;-34
2023/09/22 05:29:55;;;;;;;0.77;0.63;;;;;;;;;;5106972;28;20243;-37
2023/09/22 05:32:22;;;;;;;0.80;0.80;;;;;;;;;;5090324;28;20205;-36
2023/09/22 05:34:51;;;;;;;0.50;0.50;;;;;;;;;;5095027;28;20203;-34
2023/09/22 05:37:19;;;;;;;0.80;0.80;;;;;;;;;;5098534;28;20232;-35
2023/09/22 05:39:47;;;;;;;3.70;0.90;;;;;;;;;;5091189;28;20240;-35
2023/09/22 05:42:14;;;;;;;0.63;0.63;;;;;;;;;;5089312;28;20719;-34
2023/09/22 05:44:41;;;;;;;1.37;0.87;;;;;;;;;;5089597;28;20205;-34
2023/09/22 05:47:08;;;;;;;0.70;0.70;;;;;;;;;;5098862;28;20291;-34
2023/09/22 05:49:36;;;;;;;0.53;0.53;;;;;;;;;;5092256;28;20224;-34
2023/09/22 05:52:03;;;;;;;1.17;0.70;;;;;;;;;;5102144;28;20207;-32
2023/09/22 05:54:31;;;;;;;0.80;0.70;;;;;;;;;;5109240;28;20296;-35
2023/09/22 05:56:59;;;;;;;0.70;0.70;;;;;;;;;;5105101;28;20215;-33
2023/09/22 05:59:28;;;;;;;1.33;0.90;;;;;;;;;;5101147;28;20225;-34
2023/09/22 06:01:57;;;;;;;1.37;0.70;;;;;;;;;;5095284;28;20232;-34
2023/09/22 06:04:24;;;;;;;1.43;1.00;;;;;;;;;;5094816;28;20205;-31
2023/09/22 06:06:53;;;;;;;1.57;0.60;;;;;;;;;;5098490;28;20217;-33
2023/09/22 06:09:21;;;;;;;1.13;0.77;;;;;;;;;;5105567;28;20382;-34
2023/09/22 06:11:49;;;;;;;1.33;0.90;;;;;;;;;;5096803;28;20208;-32
2023/09/22 06:14:17;;;;;;;0.70;0.67;;;;;;;;;;5097118;28;20211;-33
2023/09/22 06:16:44;;;;;;;1.07;0.90;;;;;;;;;;5103910;28;20209;-31
2023/09/22 06:19:11;;;;;;;2.30;0.80;;;;;;;;;;5098286;28;20216;-32
2023/09/22 06:21:39;;;;;;;0.53;0.53;;;;;;;;;;5094949;28;20232;-35
2023/09/22 06:24:07;;;;;;;1.53;0.83;;;;;;;;;;5111309;28;20343;-35
2023/09/22 06:26:34;;;;;;;1.27;0.77;;;;;;;;;;5103809;28;20211;-34
2023/09/22 06:29:02;;;;;;;2.97;0.70;;;;;;;;;;5095051;28;20242;-30
2023/09/22 06:31:30;;;;;;;1.40;0.90;;;;;;;;;;5094694;28;20235;-34
2023/09/22 06:33:59;;;;;;;0.80;0.80;;;;;;;;;;5094759;28;20579;-34
2023/09/22 06:36:26;;;;;;;2.83;1.00;;;;;;;;;;5102984;28;20212;-32
2023/09/22 06:38:53;;;;;;;1.50;0.80;;;;;;;;;;5105683;28;20207;-31
2023/09/22 06:41:20;;;;;;;0.73;0.70;;;;;;;;;;5090178;28;20296;-37
2023/09/22 06:43:48;;;;;;;1.53;1.00;;;;;;;;;;5102293;28;20216;-35
2023/09/22 06:46:17;;;;;;;1.00;0.90;;;;;;;;;;5094606;28;20208;-33
2023/09/22 06:48:46;;;;;;;2.13;1.20;;;;;;;;;;5101740;28;20211;-32
2023/09/22 06:51:18;;;;;;;0.67;0.67;;;;;;;;;;5101871;28;20219;-32
2023/09/22 06:53:47;;;;;;;0.83;0.70;;;;;;;;;;5098552;27;20208;-32
2023/09/22 06:56:14;;;;;;;1.70;1.00;;;;;;;;;;5103714;28;20207;-33
2023/09/22 06:58:41;;;;;;;0.80;0.73;;;;;;;;;;5112511;28;20211;-34
2023/09/22 07:01:10;;;;;;;2.87;0.87;;;;;;;;;;5102487;28;20228;-33
2023/09/22 07:03:37;;;;;;;0.60;0.60;;;;;;;;;;5099433;28;20207;-32
2023/09/22 07:06:07;;;;;;;1.30;0.87;;;;;;;;;;5099525;28;20201;-33
2023/09/22 07:08:35;;;;;;;0.83;0.80;;;;;;;;;;5102269;28;20239;-32
2023/09/22 07:11:03;;;;;;;1.37;0.90;;;;;;;;;;5103469;28;20254;-35
2023/09/22 07:13:30;;;;;;;1.57;0.97;;;;;;;;;;5095025;28;20210;-34
2023/09/22 07:15:57;;;;;;;0.70;0.70;;;;;;;;;;5107961;28;20200;-34
2023/09/22 07:18:25;;;;;;;0.80;0.80;;;;;;;;;;5106494;28;20200;-35
2023/09/22 07:20:53;;;;;;;4.23;0.80;;;;;;;;;;5105988;28;20224;-33
2023/09/22 07:23:21;;;;;;;0.93;0.80;;;;;;;;;;5105181;28;20560;-34
2023/09/22 07:25:59;;;;;;;1.33;0.80;;;;;;;;;;5098481;28;20276;-35
2023/09/22 07:28:26;;;;;;;0.87;0.70;;;;;;;;;;5099266;28;20207;-34
2023/09/22 07:30:53;;;;;;;1.00;1.00;;;;;;;;;;5106440;28;20246;-34
2023/09/22 07:33:20;;;;;;;1.87;0.80;;;;;;;;;;5110838;28;20197;-35
2023/09/22 07:35:49;;;;;;;2.33;1.00;;;;;;;;;;5103252;27;20211;-32
2023/09/22 07:38:17;;;;;;;2.37;1.00;;;;;;;;;;5126035;27;20210;-34
2023/09/22 07:40:46;;;;;;;3.97;1.20;;;;;;;;;;5108448;27;20224;-33
2023/09/22 07:43:13;;;;;;;3.77;1.23;;;;;;;;;;5109604;28;20213;-36
2023/09/22 07:45:40;;;;;;;1.83;1.10;;;;;;;;;;5101514;28;20477;-36
2023/09/22 07:48:08;;;;;;;0.80;0.80;;;;;;;;;;5094797;28;20629;-35
2023/09/22 07:50:36;;;;;;;3.20;1.30;;;;;;;;;;5106001;28;20334;-32
2023/09/22 07:53:03;;;;;;;1.63;1.20;;;;;;;;;;5100934;28;20258;-32
2023/09/22 07:55:30;;;;;;;0.90;0.90;;;;;;;;;;5096933;28;20254;-31
2023/09/22 07:57:59;;;;;;;2.80;0.90;;;;;;;;;;5101586;28;20213;-31
2023/09/22 08:00:27;;;;;;;2.83;0.90;;;;;;;;;;5093311;28;20316;-35
2023/09/22 08:02:54;;;;;;;2.27;1.00;;;;;;;;;;5091483;28;20254;-30
2023/09/22 08:05:21;;;;;;;5.60;1.40;;;;;;;;;;5098154;28;20531;-33
2023/09/22 08:07:50;;;;;;;1.40;0.80;;;;;;;;;;5104108;28;20222;-32
2023/09/22 08:10:18;;;;;;;3.43;1.10;;;;;;;;;;5100884;28;20231;-34
2023/09/22 08:12:45;;;;;;;1.20;1.10;;;;;;;;;;5100672;28;20200;-35
2023/09/22 08:15:15;;;;;;;5.10;1.23;;;;;;;;;;5103650;28;20200;-33
2023/09/22 08:17:43;;;;;;;0.90;0.90;;;;;;;;;;5108015;28;20200;-34
2023/09/22 08:20:12;;;;;;;1.57;0.97;;;;;;;;;;5099853;28;20273;-35
2023/09/22 08:22:40;;;;;;;1.93;0.80;;;;;;;;;;5092691;28;20229;-34
2023/09/22 08:25:09;;;;;;;1.20;0.90;;;;;;;;;;5107711;28;20201;-33
2023/09/22 08:27:36;;;;;;;0.87;0.80;;;;;;;;;;5099936;28;20226;-32
2023/09/22 08:30:09;;;;;;;3.50;0.80;;;;;;;;;;5103986;28;20249;-34
2023/09/22 08:32:39;;;;;;;0.87;0.87;;;;;;;;;;5104641;28;20203;-36
2023/09/22 08:35:06;;;;;;;0.77;0.73;;;;;;;;;;5105195;28;20661;-34
2023/09/22 08:37:36;;;;;;;2.33;0.90;;;;;;;;;;5107864;28;20200;-35
2023/09/22 08:40:07;;;;;;;1.93;1.00;;;;;;;;;;5094776;28;20220;-30
2023/09/22 08:42:35;;;;;;;1.17;0.97;;;;;;;;;;5102448;28;20314;-34
2023/09/22 08:45:02;;;;;;;1.53;0.90;;;;;;;;;;5111235;28;20206;-34
2023/09/22 08:47:29;;;;;;;0.90;0.80;;;;;;;;;;5103748;28;20204;-31
2023/09/22 08:49:58;;;;;;;2.47;0.90;;;;;;;;;;5098066;28;20226;-36
2023/09/22 08:52:25;;;;;;;1.73;1.00;;;;;;;;;;5097315;28;20204;-36
2023/09/22 08:54:53;;;;;;;3.67;1.37;;;;;;;;;;5102032;28;20200;-34
2023/09/22 08:57:20;;;;;;;2.00;0.80;;;;;;;;;;5100450;28;20206;-36
2023/09/22 08:59:47;;;;;;;1.13;0.87;;;;;;;;;;5103471;28;20263;-34
2023/09/22 09:02:15;;;;;;;3.67;1.33;;;;;;;;;;5100910;28;20228;-33
2023/09/22 09:04:42;;;;;;;4.90;1.00;;;;;;;;;;5097215;28;20204;-36
2023/09/22 09:07:11;;;;;;;0.73;0.73;;;;;;;;;;5109856;28;20211;-35
2023/09/22 09:09:43;;;;;;;1.17;1.13;;;;;;;;;;5095184;28;20242;-35
2023/09/22 09:12:10;;;;;;;2.03;1.07;;;;;;;;;;5106319;28;20205;-35
2023/09/22 09:14:39;;;;;;;0.97;0.73;;;;;;;;;;5098306;28;20292;-33
2023/09/22 09:17:18;;;;;;;0.70;0.70;;;;;;;;;;5099682;28;20303;-33
2023/09/22 09:19:47;;;;;;;0.50;0.50;;;;;;;;;;5103935;28;20223;-37
2023/09/22 09:22:15;;;;;;;1.67;0.70;;;;;;;;;;5105691;28;20228;-35
2023/09/22 09:24:43;;;;;;;1.50;0.50;;;;;;;;;;5104560;28;20200;-33
2023/09/22 09:27:21;;;;;;;0.97;0.80;;;;;;;;;;5101012;27;20283;-34
2023/09/22 09:29:50;;;;;;;1.50;0.60;;;;;;;;;;5098022;28;20254;-36
2023/09/22 09:32:24;;;;;;;0.60;0.60;;;;;;;;;;5098624;27;20266;-32
2023/09/22 09:34:52;;;;;;;2.60;0.60;;;;;;;;;;5095640;28;20227;-31
2023/09/22 09:37:21;;;;;;;2.60;0.40;;;;;;;;;;5112877;28;20222;-32
2023/09/22 09:39:50;;;;;;;2.73;0.60;;;;;;;;;;5100662;28;20223;-31
2023/09/22 09:42:18;;;;;;;0.70;0.70;;;;;;;;;;5109060;28;20341;-36
2023/09/22 09:44:49;;;;;;;2.90;0.70;;;;;;;;;;5095949;28;20201;-35
2023/09/22 09:47:20;;;;;;;0.67;0.67;;;;;;;;;;5111084;28;20204;-33
2023/09/22 09:49:48;;;;;;;0.50;0.50;;;;;;;;;;5098980;28;20219;-33
2023/09/22 09:52:16;;;;;;;1.43;0.40;;;;;;;;;;5105009;28;20206;-34
2023/09/22 09:54:49;;;;;;;0.50;0.40;;;;;;;;;;5112630;28;20200;-30
2023/09/22 09:57:17;;;;;;;0.93;0.63;;;;;;;;;;5103213;28;20208;-36
2023/09/22 09:59:44;;;;;;;3.23;0.67;;;;;;;;;;5100705;28;20231;-33
2023/09/22 10:02:12;;;;;;;0.60;0.60;;;;;;;;;;5110450;28;20211;-36
2023/09/22 10:04:41;;;;;;;0.67;0.67;;;;;;;;;;5104014;28;20212;-37
2023/09/22 10:07:08;;;;;;;0.60;0.60;;;;;;;;;;5107371;28;20243;-36
2023/09/22 10:09:35;;;;;;;3.30;0.53;;;;;;;;;;5094498;28;20224;-34
2023/09/22 10:12:06;;;;;;;0.43;0.43;;;;;;;;;;5092134;27;20197;-36
2023/09/22 10:14:46;;;;;;;0.60;0.60;;;;;;;;;;5098551;28;20196;-34
2023/09/22 10:17:21;;;;;;;2.30;0.57;;;;;;;;;;5096327;28;20204;-33
2023/09/22 10:19:49;;;;;;;0.50;0.50;;;;;;;;;;5100078;28;20272;-36
2023/09/22 10:22:16;;;;;;;3.57;0.47;;;;;;;;;;5107805;28;20223;-37
2023/09/22 10:24:43;;;;;;;0.50;0.50;;;;;;;;;;5103935;28;20205;-39
2023/09/22 10:27:16;;;;;;;1.90;1.57;;;;;;;;;;5107970;28;20199;-34
2023/09/22 10:29:45;;;;;;;0.40;0.40;;;;;;;;;;5105994;28;20236;-32
2023/09/22 10:32:21;;;;;;;0.83;0.40;;;;;;;;;;5098421;28;20226;-37
2023/09/22 10:34:49;;;;;;;1.07;0.40;;;;;;;;;;5108874;28;20295;-36
2023/09/22 10:37:17;;;;;;;0.37;0.37;;;;;;;;;;5098254;28;20205;-34
2023/09/22 10:39:51;;;;;;;2.00;0.43;;;;;;;;;;5092020;28;20231;-35
2023/09/22 10:42:20;;;;;;;0.37;0.37;;;;;;;;;;5108668;28;20219;-35
2023/09/22 10:45:00;;;;;;;0.60;0.60;;;;;;;;;;5114329;28;20207;-38
2023/09/22 10:47:37;;;;;;;0.33;0.33;;;;;;;;;;5114253;28;20203;-36
2023/09/22 10:50:10;;;;;;;0.87;0.50;;;;;;;;;;5100097;28;20226;-36
2023/09/22 10:52:38;;;;;;;0.60;0.50;;;;;;;;;;5099303;28;20203;-36
2023/09/22 10:55:07;;;;;;;0.60;0.40;;;;;;;;;;5095500;28;20291;-35
2023/09/22 10:57:38;;;;;;;0.47;0.47;;;;;;;;;;5106255;28;20205;-38
2023/09/22 11:00:13;;;;;;;0.47;0.37;;;;;;;;;;5110456;28;20220;-36
2023/09/22 11:02:40;;;;;;;0.97;0.50;;;;;;;;;;5101124;28;20326;-37
2023/09/22 11:05:08;;;;;;;0.40;0.40;;;;;;;;;;5103566;28;20200;-35
2023/09/22 11:07:36;;;;;;;0.40;0.40;;;;;;;;;;5101301;28;20675;-36
2023/09/22 11:10:04;;;;;;;0.50;0.50;;;;;;;;;;5086124;28;20237;-35
2023/09/22 11:12:32;;;;;;;0.63;0.50;;;;;;;;;;5098426;28;20319;-37
2023/09/22 11:15:02;;;;;;;1.03;0.57;;;;;;;;;;5096503;28;20216;-35
2023/09/22 11:17:39;;;;;;;0.30;0.30;;;;;;;;;;5112847;28;20196;-39
2023/09/22 11:20:12;;;;;;;0.43;0.43;;;;;;;;;;5098497;28;20244;-38
2023/09/22 11:22:39;;;;;;;0.30;0.30;;;;;;;;;;5097692;28;20247;-35
2023/09/22 11:25:07;;;;;;;1.40;0.87;;;;;;;;;;5098907;28;20209;-34
2023/09/22 11:27:41;;;;;;;1.63;0.97;;;;;;;;;;5098199;28;20209;-38
2023/09/22 11:30:14;;;;;;;2.83;0.40;;;;;;;;;;5109304;28;20355;-37
2023/09/22 11:32:41;;;;;;;0.37;0.33;;;;;;;;;;5102071;28;20201;-35
2023/09/22 11:35:08;;;;;;;0.83;0.43;;;;;;;;;;5103657;28;20205;-39
2023/09/22 11:37:36;;;;;;;1.17;0.60;;;;;;;;;;5102205;28;20201;-35
2023/09/22 11:40:13;;;;;;;0.53;0.40;;;;;;;;;;5096572;28;20228;-35
2023/09/22 11:42:40;;;;;;;0.57;0.47;;;;;;;;;;5097202;28;20220;-38
2023/09/22 11:45:12;;;;;;;0.63;0.40;;;;;;;;;;5104994;28;20228;-37
2023/09/22 11:47:39;;;;;;;0.40;0.30;;;;;;;;;;5108688;28;20227;-39
2023/09/22 11:50:07;;;;;;;0.60;0.50;;;;;;;;;;5097782;28;20254;-34
2023/09/22 11:52:34;;;;;;;0.77;0.50;;;;;;;;;;5108554;28;20235;-39
2023/09/22 11:55:02;;;;;;;0.80;0.50;;;;;;;;;;5096756;28;20239;-36
2023/09/22 11:57:29;;;;;;;0.63;0.57;;;;;;;;;;5097976;28;20212;-37
2023/09/22 11:59:59;;;;;;;0.73;0.70;;;;;;;;;;5099391;28;20307;-38
2023/09/22 12:02:28;;;;;;;0.63;0.53;;;;;;;;;;5096686;28;20221;-38
2023/09/22 12:04:55;;;;;;;0.30;0.30;;;;;;;;;;5095379;27;20208;-36
2023/09/22 12:07:22;;;;;;;0.47;0.27;;;;;;;;;;5109068;28;20267;-36
2023/09/22 12:09:49;;;;;;;0.17;0.10;;;;;;;;;;5105596;28;20311;-38
2023/09/22 12:12:17;;;;;;;0.77;0.37;;;;;;;;;;5102920;28;20205;-37
2023/09/22 12:14:44;;;;;;;0.33;0.30;;;;;;;;;;5092515;28;20205;-39
2023/09/22 12:17:12;;;;;;;0.53;0.20;;;;;;;;;;5100549;28;20211;-33
2023/09/22 12:19:40;;;;;;;0.30;0.30;;;;;;;;;;5096003;28;20220;-36
2023/09/22 12:22:07;;;;;;;0.57;0.50;;;;;;;;;;5099838;28;20209;-38
2023/09/22 12:24:35;;;;;;;0.53;0.40;;;;;;;;;;5103262;28;20189;-35
2023/09/22 12:27:03;;;;;;;0.30;0.27;;;;;;;;;;5101756;28;20300;-32
2023/09/22 12:29:31;;;;;;;1.40;0.60;;;;;;;;;;5102895;28;20236;-36
2023/09/22 12:31:59;;;;;;;0.30;0.30;;;;;;;;;;5090202;28;20323;-37
2023/09/22 12:34:27;;;;;;;1.00;0.50;;;;;;;;;;5098654;28;20201;-35
2023/09/22 12:36:56;;;;;;;0.30;0.30;;;;;;;;;;5096944;28;20208;-37
2023/09/22 12:39:24;;;;;;;0.37;0.37;;;;;;;;;;5095750;28;20323;-34
2023/09/22 12:41:51;;;;;;;0.37;0.30;;;;;;;;;;5099362;28;20276;-35
2023/09/22 12:44:18;;;;;;;0.63;0.30;;;;;;;;;;5091172;28;20229;-35
2023/09/22 12:46:46;;;;;;;0.33;0.30;;;;;;;;;;5094113;28;20289;-37
2023/09/22 12:49:13;;;;;;;0.60;0.30;;;;;;;;;;5093539;28;20224;-36
2023/09/22 12:51:40;;;;;;;1.63;0.40;;;;;;;;;;5099282;28;20197;-35
2023/09/22 12:54:09;;;;;;;0.20;0.20;;;;;;;;;;5102390;28;20193;-37
2023/09/22 12:56:36;;;;;;;0.30;0.30;;;;;;;;;;5093500;28;20205;-38
2023/09/22 12:59:04;;;;;;;0.30;0.30;;;;;;;;;;5099859;28;20205;-37
2023/09/22 13:01:32;;;;;;;1.03;0.33;;;;;;;;;;5102076;28;20228;-38
2023/09/22 13:03:59;;;;;;;0.20;0.20;;;;;;;;;;5105397;28;20225;-38
2023/09/22 13:06:27;;;;;;;0.47;0.40;;;;;;;;;;5099679;28;20214;-38
2023/09/22 13:08:55;;;;;;;0.20;0.20;;;;;;;;;;5097875;28;20209;-37
2023/09/22 13:11:24;;;;;;;0.77;0.33;;;;;;;;;;5092071;28;20237;-36
2023/09/22 13:13:51;;;;;;;0.40;0.40;;;;;;;;;;5097674;28;20563;-33
2023/09/22 13:16:18;;;;;;;0.30;0.30;;;;;;;;;;5099687;28;20564;-36
2023/09/22 13:18:47;;;;;;;0.43;0.20;;;;;;;;;;5090530;28;20197;-36
2023/09/22 13:21:14;;;;;;;1.13;0.50;;;;;;;;;;5091491;28;20208;-36
2023/09/22 13:23:42;;;;;;;0.30;0.30;;;;;;;;;;5103508;28;20298;-33
2023/09/22 13:26:10;;;;;;;1.77;0.33;;;;;;;;;;5103494;28;20235;-34
2023/09/22 13:28:38;;;;;;;0.23;0.23;;;;;;;;;;5104087;28;20204;-39
2023/09/22 13:31:06;;;;;;;0.27;0.20;;;;;;;;;;5106923;28;20267;-37
2023/09/22 13:33:33;;;;;;;0.53;0.40;;;;;;;;;;5098967;28;20200;-36
2023/09/22 13:36:01;;;;;;;0.20;0.20;;;;;;;;;;5098165;28;20284;-33
2023/09/22 13:38:28;;;;;;;1.10;0.50;;;;;;;;;;5093741;28;20263;-35
2023/09/22 13:40:56;;;;;;;0.87;0.50;;;;;;;;;;5088184;28;20542;-38
2023/09/22 13:43:23;;;;;;;1.37;0.40;;;;;;;;;;5094915;28;20230;-39
2023/09/22 13:45:52;;;;;;;0.40;0.40;;;;;;;;;;5100202;28;20207;-38
2023/09/22 13:48:19;;;;;;;1.20;0.27;;;;;;;;;;5099078;28;20202;-34
2023/09/22 13:50:52;;;;;;;0.50;0.50;;;;;;;;;;5091952;28;20221;-37
2023/09/22 13:53:19;;;;;;;0.50;0.50;;;;;;;;;;5102621;28;20224;-39
2023/09/22 13:55:46;;;;;;;0.60;0.50;;;;;;;;;;5097925;28;20207;-39
2023/09/22 13:58:13;;;;;;;0.70;0.50;;;;;;;;;;5090427;28;20210;-35
2023/09/22 14:00:40;;;;;;;0.27;0.20;;;;;;;;;;5099075;28;20226;-36
2023/09/22 14:03:09;;;;;;;0.47;0.47;;;;;;;;;;5094094;28;20254;-37
2023/09/22 14:05:42;;;;;;;0.30;0.30;;;;;;;;;;5099357;28;20198;-35
2023/09/22 14:08:09;;;;;;;1.30;0.30;;;;;;;;;;5096688;28;20202;-36
2023/09/22 14:10:37;;;;;;;1.00;0.40;;;;;;;;;;5099744;28;20235;-35
2023/09/22 14:13:05;;;;;;;0.70;0.37;;;;;;;;;;5105472;28;20323;-32
2023/09/22 14:15:32;;;;;;;0.30;0.30;;;;;;;;;;5100166;28;20248;-34
2023/09/22 14:18:00;;;;;;;2.27;0.50;;;;;;;;;;5103664;28;20204;-39
2023/09/22 14:20:28;;;;;;;0.10;0.10;;;;;;;;;;5101434;28;20228;-33
2023/09/22 14:22:56;;;;;;;0.47;0.30;;;;;;;;;;5098726;28;20228;-38
2023/09/22 14:25:24;;;;;;;0.83;0.40;;;;;;;;;;5094857;28;20218;-37
2023/09/22 14:27:53;;;;;;;1.20;0.40;;;;;;;;;;5094926;28;20225;-36
2023/09/22 14:30:20;;;;;;;0.27;0.27;;;;;;;;;;5095078;28;20291;-36
2023/09/22 14:32:47;;;;;;;0.57;0.27;;;;;;;;;;5107897;28;20213;-34
2023/09/22 14:35:15;;;;;;;0.63;0.20;;;;;;;;;;5100895;28;20218;-34
2023/09/22 14:37:43;;;;;;;0.97;0.20;;;;;;;;;;5102191;28;20201;-36
2023/09/22 14:40:11;;;;;;;0.93;0.40;;;;;;;;;;5092981;28;20221;-36
2023/09/22 14:42:38;;;;;;;0.23;0.20;;;;;;;;;;5113867;28;20201;-39
2023/09/22 14:45:07;;;;;;;1.43;0.40;;;;;;;;;;5114821;28;20202;-33
2023/09/22 14:47:34;;;;;;;0.33;0.30;;;;;;;;;;5097866;28;20214;-33
2023/09/22 14:50:01;;;;;;;0.53;0.47;;;;;;;;;;5109786;28;20508;-35